Terminal Aerodrome Forecast
Issued by NWS

Home | Current Version | Previous Version | Text Only | Print | Product List | Glossary On
Versions: 1 2 3 4 5 6 7 8 9 10 11 12 13 14 15 16 17 18 19 20 21
000
FTUS46 KMFR 200524
TAFRBG
TAF
KRBG 200524Z 2006/2106 VRB02KT P6SM SKC
     FM201400 00000KT 5SM BR SCT010
     FM201700 01003KT P6SM SKC
     FM202100 34007KT P6SM SCT120
     FM210400 34002KT P6SM BKN120=

USA.gov is the U.S. government's official web portal to all federal, state and local government web resources and services.